createdAt,value
2024-01-28T00:00:35.450Z,0.00
2024-01-28T00:01:35.403Z,0.00
2024-01-28T00:02:35.214Z,0.00
2024-01-28T00:03:35.269Z,0.00
2024-01-28T00:04:35.192Z,0.00
2024-01-28T00:05:35.323Z,0.00
2024-01-28T00:06:35.276Z,0.00
2024-01-28T00:07:35.231Z,0.00
2024-01-28T00:08:35.145Z,0.00
2024-01-28T00:09:35.155Z,0.00
2024-01-28T00:10:35.131Z,0.00
2024-01-28T00:11:35.136Z,0.00
2024-01-28T00:12:35.166Z,0.00
2024-01-28T00:13:35.093Z,0.00
2024-01-28T00:14:35.083Z,0.00
2024-01-28T00:15:35.173Z,0.00
2024-01-28T00:16:35.112Z,0.00
2024-01-28T00:17:35.086Z,0.00
2024-01-28T00:18:35.242Z,0.00
2024-01-28T00:19:35.253Z,0.00
2024-01-28T00:20:35.024Z,0.00
2024-01-28T00:21:35.078Z,0.00
2024-01-28T00:22:35.012Z,0.00
2024-01-28T00:23:34.988Z,0.00
2024-01-28T00:24:35.030Z,0.00
2024-01-28T00:25:34.967Z,0.00
2024-01-28T00:26:35.027Z,0.00
2024-01-28T00:27:34.957Z,0.00
2024-01-28T00:28:34.956Z,0.00
2024-01-28T00:29:34.928Z,0.00
2024-01-28T00:30:35.029Z,0.00
2024-01-28T00:31:34.923Z,0.00
2024-01-28T00:32:34.952Z,0.00
2024-01-28T00:33:34.931Z,0.00
2024-01-28T00:34:34.971Z,0.00
2024-01-28T00:35:34.860Z,0.00
2024-01-28T00:36:34.917Z,0.00
2024-01-28T00:37:34.992Z,0.00
2024-01-28T00:38:34.829Z,0.00
2024-01-28T00:39:34.820Z,0.00
2024-01-28T00:40:34.828Z,0.00
2024-01-28T00:41:37.956Z,0.00
2024-01-28T00:42:34.833Z,0.00
2024-01-28T00:43:34.788Z,0.00
2024-01-28T00:44:34.794Z,0.00
2024-01-28T00:45:34.789Z,0.00
2024-01-28T00:46:34.742Z,0.00
2024-01-28T00:47:34.725Z,0.00
2024-01-28T00:48:34.903Z,0.00
2024-01-28T00:49:34.912Z,0.00
2024-01-28T00:50:34.698Z,0.00
2024-01-28T00:51:34.718Z,0.00
2024-01-28T00:52:34.694Z,0.00
2024-01-28T00:53:34.661Z,0.00
2024-01-28T00:54:34.749Z,0.00
2024-01-28T00:55:34.646Z,0.00
2024-01-28T00:56:34.633Z,0.00
2024-01-28T00:57:34.638Z,0.00
2024-01-28T00:58:34.606Z,0.00
2024-01-28T00:59:34.601Z,0.00
2024-01-28T01:00:34.649Z,0.00
2024-01-28T01:01:34.675Z,0.00
2024-01-28T01:02:34.567Z,0.00
2024-01-28T01:03:34.722Z,0.00
2024-01-28T01:04:34.703Z,0.00
2024-01-28T01:05:34.837Z,0.00
2024-01-28T01:06:34.611Z,0.00
2024-01-28T01:07:34.521Z,0.00
2024-01-28T01:08:34.506Z,0.00
2024-01-28T01:09:34.529Z,0.00
2024-01-28T01:10:34.483Z,0.00
2024-01-28T01:11:34.968Z,0.00
2024-01-28T01:12:34.487Z,0.00
2024-01-28T01:13:34.440Z,0.00
2024-01-28T01:14:34.430Z,0.00
2024-01-28T01:15:34.481Z,0.00
2024-01-28T01:16:34.413Z,0.00
2024-01-28T01:17:34.433Z,0.00
2024-01-28T01:18:34.590Z,0.00
2024-01-28T01:19:34.514Z,0.00
2024-01-28T01:20:34.366Z,0.00
2024-01-28T01:21:34.388Z,0.00
2024-01-28T01:22:34.369Z,0.00
2024-01-28T01:23:34.352Z,0.00
2024-01-28T01:24:34.383Z,0.00
2024-01-28T01:25:34.309Z,0.00
2024-01-28T01:26:34.297Z,0.00
2024-01-28T01:27:34.321Z,0.00
2024-01-28T01:28:34.462Z,0.00
2024-01-28T01:29:34.297Z,0.00
2024-01-28T01:30:34.282Z,0.00
2024-01-28T01:31:34.250Z,0.00
2024-01-28T01:32:34.284Z,0.00
2024-01-28T01:33:34.427Z,0.00
2024-01-28T01:34:34.333Z,0.00
2024-01-28T01:35:34.199Z,0.00
2024-01-28T01:36:34.219Z,0.00
2024-01-28T01:37:34.187Z,0.00
2024-01-28T01:38:34.178Z,0.00
2024-01-28T01:39:34.199Z,0.00
2024-01-28T01:40:34.142Z,0.00
2024-01-28T01:41:34.122Z,0.00
2024-01-28T01:42:34.190Z,0.00
2024-01-28T01:43:34.107Z,0.00
2024-01-28T01:44:34.139Z,0.00
2024-01-28T01:45:34.125Z,0.00
2024-01-28T01:46:34.074Z,0.00
2024-01-28T01:47:34.083Z,0.00
2024-01-28T01:48:34.246Z,0.00
2024-01-28T01:49:34.181Z,0.00
2024-01-28T01:50:34.079Z,0.00
2024-01-28T01:51:34.081Z,0.00
2024-01-28T01:52:34.052Z,0.00
2024-01-28T01:53:34.011Z,0.00
2024-01-28T01:54:34.035Z,0.00
2024-01-28T01:55:33.983Z,0.00
2024-01-28T01:56:33.974Z,0.00
2024-01-28T01:57:34.022Z,0.00
2024-01-28T01:58:33.947Z,0.00
2024-01-28T01:59:33.926Z,0.00
2024-01-28T02:00:34.114Z,0.00
2024-01-28T02:01:34.084Z,0.00
2024-01-28T02:02:33.920Z,0.00
2024-01-28T02:03:33.952Z,0.00
2024-01-28T02:04:33.974Z,0.00
2024-01-28T02:05:33.925Z,0.00
2024-01-28T02:06:33.924Z,0.00
2024-01-28T02:07:33.869Z,0.00
2024-01-28T02:08:33.864Z,0.00
2024-01-28T02:09:33.831Z,0.00
2024-01-28T02:10:33.818Z,0.00
2024-01-28T02:11:33.802Z,0.00
2024-01-28T02:12:33.877Z,0.00
2024-01-28T02:13:33.790Z,0.00
2024-01-28T02:14:33.775Z,0.00
2024-01-28T02:15:33.819Z,0.00
2024-01-28T02:16:33.752Z,0.00
2024-01-28T02:17:33.789Z,0.00
2024-01-28T02:18:33.872Z,0.00
2024-01-28T02:19:33.831Z,0.00
2024-01-28T02:20:33.710Z,0.00
2024-01-28T02:21:33.761Z,0.00
2024-01-28T02:22:33.718Z,0.00
2024-01-28T02:23:33.672Z,0.00
2024-01-28T02:24:33.717Z,0.00
2024-01-28T02:25:33.656Z,0.00
2024-01-28T02:26:33.637Z,0.00
2024-01-28T02:27:33.649Z,0.00
2024-01-28T02:28:33.654Z,0.00
2024-01-28T02:29:33.618Z,0.00
2024-01-28T02:30:33.644Z,0.00
2024-01-28T02:31:33.590Z,0.00
2024-01-28T02:32:33.647Z,0.00
2024-01-28T02:33:33.690Z,0.00
2024-01-28T02:34:33.615Z,0.00
2024-01-28T02:35:33.545Z,0.00
2024-01-28T02:36:33.547Z,0.00
2024-01-28T02:37:33.539Z,0.00
2024-01-28T02:38:33.501Z,0.00
2024-01-28T02:39:33.553Z,0.00
2024-01-28T02:40:33.484Z,0.00
2024-01-28T02:41:33.491Z,0.00
2024-01-28T02:42:33.520Z,0.00
2024-01-28T02:43:33.453Z,0.00
2024-01-28T02:44:33.444Z,0.00
2024-01-28T02:45:33.525Z,0.00
2024-01-28T02:46:33.412Z,0.00
2024-01-28T02:47:33.467Z,0.00
2024-01-28T02:48:33.449Z,0.00
2024-01-28T02:49:33.476Z,0.00
2024-01-28T02:50:33.410Z,0.00
2024-01-28T02:51:33.405Z,0.00
2024-01-28T02:52:33.347Z,0.00
2024-01-28T02:53:33.336Z,0.00
2024-01-28T02:54:33.349Z,0.00
2024-01-28T02:55:33.329Z,0.00
2024-01-28T02:56:33.315Z,0.00
2024-01-28T02:57:33.364Z,0.00
2024-01-28T02:58:33.278Z,0.00
2024-01-28T02:59:33.293Z,0.00
2024-01-28T03:00:33.293Z,0.00
2024-01-28T03:01:33.309Z,0.00
2024-01-28T03:02:33.275Z,0.00
2024-01-28T03:03:33.321Z,0.00
2024-01-28T03:04:33.316Z,0.00
2024-01-28T03:05:33.212Z,0.00
2024-01-28T03:06:33.373Z,0.00
2024-01-28T03:07:33.246Z,0.00
2024-01-28T03:08:33.177Z,0.00
2024-01-28T03:09:33.207Z,0.00
2024-01-28T03:10:33.154Z,0.00
2024-01-28T03:11:33.145Z,0.00
2024-01-28T03:12:33.210Z,0.00
2024-01-28T03:13:33.125Z,0.00
2024-01-28T03:14:33.108Z,0.00
2024-01-28T03:15:33.125Z,0.00
2024-01-28T03:16:33.091Z,0.00
2024-01-28T03:17:33.171Z,0.00
2024-01-28T03:18:33.195Z,0.00
2024-01-28T03:19:33.194Z,0.00
2024-01-28T03:20:33.053Z,0.00
2024-01-28T03:21:33.090Z,0.00
2024-01-28T03:22:33.048Z,0.00
2024-01-28T03:23:33.045Z,0.00
2024-01-28T03:24:33.047Z,0.00
2024-01-28T03:25:33.000Z,0.00
2024-01-28T03:26:32.973Z,0.00
2024-01-28T03:27:33.011Z,0.00
2024-01-28T03:28:32.968Z,0.00
2024-01-28T03:29:32.959Z,0.00
2024-01-28T03:30:32.975Z,0.00
2024-01-28T03:31:32.937Z,0.00
2024-01-28T03:32:32.948Z,0.00
2024-01-28T03:33:33.069Z,0.00
2024-01-28T03:34:33.002Z,0.00
2024-01-28T03:35:32.885Z,0.00
2024-01-28T03:36:32.967Z,0.00
2024-01-28T03:37:32.880Z,0.00
2024-01-28T03:38:32.904Z,0.00
2024-01-28T03:39:32.933Z,0.00
2024-01-28T03:40:32.830Z,0.00
2024-01-28T03:41:33.176Z,0.00
2024-01-28T03:42:33.270Z,0.00
2024-01-28T03:43:32.822Z,0.00
2024-01-28T03:44:32.783Z,0.00
2024-01-28T03:45:32.804Z,0.00
2024-01-28T03:46:32.775Z,0.00
2024-01-28T03:47:32.814Z,0.00
2024-01-28T03:48:32.943Z,0.00
2024-01-28T03:49:32.835Z,0.00
2024-01-28T03:50:32.737Z,0.00
2024-01-28T03:51:32.758Z,0.00
2024-01-28T03:52:32.713Z,0.00
2024-01-28T03:53:32.725Z,0.00
2024-01-28T03:54:32.808Z,0.00
2024-01-28T03:55:32.683Z,0.00
2024-01-28T03:56:32.656Z,0.00
2024-01-28T03:57:32.648Z,0.00
2024-01-28T03:58:32.653Z,0.00
2024-01-28T03:59:32.643Z,0.00
2024-01-28T04:00:32.797Z,0.00
2024-01-28T04:01:33.033Z,0.00
2024-01-28T04:02:32.603Z,0.00
2024-01-28T04:03:32.644Z,0.00
2024-01-28T04:04:32.648Z,0.00
2024-01-28T04:05:32.576Z,0.00
2024-01-28T04:06:32.666Z,0.00
2024-01-28T04:07:32.703Z,0.00
2024-01-28T04:08:32.525Z,0.00
2024-01-28T04:09:32.592Z,0.00
2024-01-28T04:10:32.525Z,0.00
2024-01-28T04:11:32.503Z,0.00
2024-01-28T04:12:32.527Z,0.00
2024-01-28T04:13:32.473Z,0.00
2024-01-28T04:14:32.513Z,0.00
2024-01-28T04:15:32.496Z,0.00
2024-01-28T04:16:32.448Z,0.00
2024-01-28T04:17:32.443Z,0.00
2024-01-28T04:18:32.565Z,0.00
2024-01-28T04:19:32.546Z,0.00
2024-01-28T04:20:32.415Z,0.00
2024-01-28T04:21:32.399Z,0.00
2024-01-28T04:22:32.373Z,0.00
2024-01-28T04:23:32.373Z,0.00
2024-01-28T04:24:32.372Z,0.00
2024-01-28T04:25:32.388Z,0.00
2024-01-28T04:26:32.330Z,0.00
2024-01-28T04:27:32.352Z,0.00
2024-01-28T04:28:32.314Z,0.00
2024-01-28T04:29:32.323Z,0.00
2024-01-28T04:30:32.305Z,0.00
2024-01-28T04:31:32.287Z,0.00
2024-01-28T04:32:32.304Z,0.00
2024-01-28T04:33:32.349Z,0.00
2024-01-28T04:34:32.311Z,0.00
2024-01-28T04:35:32.235Z,0.00
2024-01-28T04:36:32.342Z,0.00
2024-01-28T04:37:32.218Z,0.00
2024-01-28T04:38:32.207Z,0.00
2024-01-28T04:39:32.235Z,0.00
2024-01-28T04:40:32.188Z,0.00
2024-01-28T04:41:32.187Z,0.00
2024-01-28T04:42:32.201Z,0.00
2024-01-28T04:43:32.227Z,0.00
2024-01-28T04:44:32.134Z,0.00
2024-01-28T04:45:32.165Z,0.00
2024-01-28T04:46:32.117Z,0.00
2024-01-28T04:47:32.170Z,0.00
2024-01-28T04:48:32.222Z,0.00
2024-01-28T04:49:32.154Z,0.00
2024-01-28T04:50:32.074Z,0.00
2024-01-28T04:51:32.163Z,0.00
2024-01-28T04:52:32.049Z,0.00
2024-01-28T04:53:32.065Z,0.00
2024-01-28T04:54:32.072Z,0.00
2024-01-28T04:55:32.029Z,0.00
2024-01-28T04:56:32.015Z,0.00
2024-01-28T04:57:32.049Z,0.00
2024-01-28T04:58:31.997Z,0.00
2024-01-28T04:59:32.006Z,0.00
2024-01-28T05:00:32.005Z,0.00
2024-01-28T05:01:31.998Z,0.00
2024-01-28T05:02:31.945Z,0.00
2024-01-28T05:03:32.098Z,0.00
2024-01-28T05:04:32.055Z,0.00
2024-01-28T05:05:31.958Z,0.00
2024-01-28T05:06:31.975Z,0.00
2024-01-28T05:07:31.919Z,0.00
2024-01-28T05:08:31.891Z,0.00
2024-01-28T05:09:31.914Z,0.00
2024-01-28T05:10:31.899Z,0.00
2024-01-28T05:11:31.855Z,0.00
2024-01-28T05:12:32.017Z,0.00
2024-01-28T05:13:31.851Z,0.00
2024-01-28T05:14:31.813Z,0.00
2024-01-28T05:15:31.858Z,0.00
2024-01-28T05:16:31.828Z,0.00
2024-01-28T05:17:31.824Z,0.00
2024-01-28T05:18:31.831Z,0.00
2024-01-28T05:19:31.963Z,0.00
2024-01-28T05:20:31.767Z,0.00
2024-01-28T05:21:31.836Z,0.00
2024-01-28T05:22:31.741Z,0.00
2024-01-28T05:23:31.723Z,0.00
2024-01-28T05:24:31.782Z,0.00
2024-01-28T05:25:31.746Z,0.00
2024-01-28T05:26:31.695Z,0.00
2024-01-28T05:27:31.711Z,0.00
2024-01-28T05:28:31.663Z,0.00
2024-01-28T05:29:31.672Z,0.00
2024-01-28T05:30:31.673Z,0.00
2024-01-28T05:31:31.637Z,0.00
2024-01-28T05:32:31.685Z,0.00
2024-01-28T05:33:31.695Z,0.00
2024-01-28T05:34:31.700Z,0.00
2024-01-28T05:35:31.606Z,0.00
2024-01-28T05:36:31.688Z,0.00
2024-01-28T05:37:31.574Z,0.00
2024-01-28T05:38:31.570Z,0.00
2024-01-28T05:39:31.576Z,0.00
2024-01-28T05:40:31.536Z,0.00
2024-01-28T05:41:31.577Z,0.00
2024-01-28T05:42:31.538Z,0.00
2024-01-28T05:43:31.503Z,0.00
2024-01-28T05:44:31.513Z,0.00
2024-01-28T05:45:31.547Z,0.00
2024-01-28T05:46:31.475Z,0.00
2024-01-28T05:47:31.492Z,0.00
2024-01-28T05:48:31.540Z,0.00
2024-01-28T05:49:31.564Z,0.00
2024-01-28T05:50:31.459Z,0.00
2024-01-28T05:51:31.435Z,0.00
2024-01-28T05:52:31.407Z,0.00
2024-01-28T05:53:31.406Z,0.00
2024-01-28T05:54:31.447Z,0.00
2024-01-28T05:55:31.373Z,0.00
2024-01-28T05:56:31.363Z,0.00
2024-01-28T05:57:31.409Z,0.00
2024-01-28T05:58:31.356Z,0.00
2024-01-28T05:59:31.326Z,0.00
2024-01-28T06:00:31.370Z,0.00
2024-01-28T06:01:31.362Z,0.00
2024-01-28T06:02:31.285Z,0.00
2024-01-28T06:03:31.360Z,0.00
2024-01-28T06:04:31.299Z,0.00
2024-01-28T06:05:31.294Z,0.00
2024-01-28T06:06:31.297Z,0.00
2024-01-28T06:07:31.252Z,0.00
2024-01-28T06:08:31.314Z,0.00
2024-01-28T06:09:31.282Z,0.00
2024-01-28T06:10:31.198Z,0.00
2024-01-28T06:11:31.211Z,0.00
2024-01-28T06:12:31.262Z,0.00
2024-01-28T06:13:31.269Z,0.00
2024-01-28T06:14:31.161Z,0.00
2024-01-28T06:15:31.191Z,0.00
2024-01-28T06:16:31.138Z,0.00
2024-01-28T06:17:31.193Z,0.00
2024-01-28T06:18:31.282Z,0.00
2024-01-28T06:19:31.170Z,0.00
2024-01-28T06:20:31.088Z,0.00
2024-01-28T06:21:31.100Z,0.00
2024-01-28T06:22:31.056Z,0.00
2024-01-28T06:23:31.065Z,0.00
2024-01-28T06:24:31.060Z,0.00
2024-01-28T06:25:31.053Z,4.00
2024-01-28T06:26:31.138Z,0.00
2024-01-28T06:27:31.132Z,0.00
2024-01-28T06:28:31.021Z,4.00
2024-01-28T06:29:30.994Z,4.00
2024-01-28T06:30:30.999Z,4.00
2024-01-28T06:31:31.041Z,4.00
2024-01-28T06:32:30.978Z,4.00
2024-01-28T06:33:31.056Z,4.00
2024-01-28T06:34:31.056Z,4.00
2024-01-28T06:35:30.934Z,8.00
2024-01-28T06:36:31.062Z,4.00
2024-01-28T06:37:30.911Z,8.00
2024-01-28T06:38:30.891Z,8.00
2024-01-28T06:39:30.909Z,8.00
2024-01-28T06:40:30.880Z,12.00
2024-01-28T06:41:30.869Z,16.00
2024-01-28T06:42:31.009Z,16.00
2024-01-28T06:43:30.836Z,20.00
2024-01-28T06:44:30.826Z,20.00
2024-01-28T06:45:30.848Z,24.00
2024-01-28T06:46:30.814Z,24.00
2024-01-28T06:47:30.839Z,28.00
2024-01-28T06:48:30.873Z,32.00
2024-01-28T06:49:30.823Z,36.00
2024-01-28T06:50:30.816Z,40.00
2024-01-28T06:51:30.811Z,44.00
2024-01-28T06:52:30.753Z,48.00
2024-01-28T06:53:30.732Z,52.00
2024-01-28T06:54:30.746Z,56.00
2024-01-28T06:55:30.709Z,60.00
2024-01-28T06:56:30.703Z,68.00
2024-01-28T06:57:30.709Z,72.00
2024-01-28T06:58:30.678Z,80.00
2024-01-28T06:59:30.671Z,84.00
2024-01-28T07:00:30.684Z,92.00
2024-01-28T07:01:30.739Z,100.00
2024-01-28T07:02:30.647Z,108.00
2024-01-28T07:03:30.689Z,112.00
2024-01-28T07:04:30.758Z,120.00
2024-01-28T07:05:30.606Z,128.00
2024-01-28T07:06:30.689Z,136.00
2024-01-28T07:07:30.644Z,144.00
2024-01-28T07:08:30.595Z,152.00
2024-01-28T07:09:30.587Z,160.00
2024-01-28T07:10:30.550Z,168.00
2024-01-28T07:11:30.540Z,176.00
2024-01-28T07:12:30.574Z,188.00
2024-01-28T07:13:30.535Z,196.00
2024-01-28T07:14:30.507Z,208.00
2024-01-28T07:15:30.547Z,216.00
2024-01-28T07:16:30.497Z,224.00
2024-01-28T07:17:30.488Z,232.00
2024-01-28T07:18:30.594Z,244.00
2024-01-28T07:19:30.470Z,252.00
2024-01-28T07:20:30.481Z,264.00
2024-01-28T07:21:30.456Z,268.00
2024-01-28T07:22:30.410Z,284.00
2024-01-28T07:23:30.410Z,288.00
2024-01-28T07:24:30.479Z,300.00
2024-01-28T07:25:30.385Z,308.00
2024-01-28T07:26:30.384Z,316.00
2024-01-28T07:27:30.384Z,328.00
2024-01-28T07:28:30.348Z,336.00
2024-01-28T07:29:30.338Z,344.00
2024-01-28T07:30:30.363Z,352.00
2024-01-28T07:31:30.321Z,360.00
2024-01-28T07:32:30.339Z,368.00
2024-01-28T07:33:30.385Z,380.00
2024-01-28T07:34:30.571Z,388.00
2024-01-28T07:35:30.278Z,392.00
2024-01-28T07:36:30.409Z,404.00
2024-01-28T07:37:30.253Z,416.00
2024-01-28T07:38:30.248Z,420.00
2024-01-28T07:39:30.301Z,436.00
2024-01-28T07:40:30.215Z,444.00
2024-01-28T07:41:30.204Z,444.00
2024-01-28T07:42:30.215Z,444.00
2024-01-28T07:43:30.179Z,452.00
2024-01-28T07:44:30.213Z,460.00
2024-01-28T07:45:30.187Z,468.00
2024-01-28T07:46:30.161Z,476.00
2024-01-28T07:47:30.147Z,476.00
2024-01-28T07:48:30.295Z,484.00
2024-01-28T07:49:30.206Z,504.00
2024-01-28T07:50:30.153Z,532.00
2024-01-28T07:51:30.159Z,556.00
2024-01-28T07:52:30.091Z,568.00
2024-01-28T07:53:30.073Z,572.00
2024-01-28T07:54:30.108Z,576.00
2024-01-28T07:55:30.075Z,584.00
2024-01-28T07:56:30.069Z,596.00
2024-01-28T07:57:30.155Z,608.00
2024-01-28T07:58:30.029Z,620.00
2024-01-28T07:59:30.017Z,628.00
2024-01-28T08:00:30.020Z,640.00
2024-01-28T08:01:30.075Z,648.00
2024-01-28T08:02:29.976Z,656.00
2024-01-28T08:03:30.006Z,660.00
2024-01-28T08:04:30.007Z,668.00
2024-01-28T08:05:29.980Z,676.00
2024-01-28T08:06:30.127Z,684.00
2024-01-28T08:07:29.948Z,692.00
2024-01-28T08:08:29.923Z,696.00
2024-01-28T08:09:29.922Z,700.00
2024-01-28T08:10:29.890Z,716.00
2024-01-28T08:11:29.886Z,724.00
2024-01-28T08:12:29.902Z,728.00
2024-01-28T08:13:29.866Z,736.00
2024-01-28T08:14:29.844Z,744.00
2024-01-28T08:15:29.868Z,748.00
2024-01-28T08:16:29.854Z,760.00
2024-01-28T08:17:29.826Z,764.00
2024-01-28T08:18:29.990Z,768.00
2024-01-28T08:19:30.025Z,772.00
2024-01-28T08:20:29.783Z,784.00
2024-01-28T08:21:29.815Z,788.00
2024-01-28T08:22:29.790Z,800.00
2024-01-28T08:23:29.749Z,800.00
2024-01-28T08:24:29.855Z,808.00
2024-01-28T08:25:29.796Z,808.00
2024-01-28T08:26:29.726Z,816.00
2024-01-28T08:27:29.763Z,816.00
2024-01-28T08:28:29.698Z,816.00
2024-01-28T08:29:29.689Z,820.00
2024-01-28T08:30:29.710Z,824.00
2024-01-28T08:31:29.669Z,848.00
2024-01-28T08:32:29.712Z,860.00
2024-01-28T08:33:29.723Z,868.00
2024-01-28T08:34:29.792Z,872.00
2024-01-28T08:35:29.710Z,880.00
2024-01-28T08:36:29.668Z,884.00
2024-01-28T08:37:29.593Z,896.00
2024-01-28T08:38:29.597Z,896.00
2024-01-28T08:39:29.591Z,904.00
2024-01-28T08:40:29.569Z,908.00
2024-01-28T08:41:31.004Z,900.00
2024-01-28T08:42:29.581Z,900.00
2024-01-28T08:43:29.552Z,920.00
2024-01-28T08:44:29.529Z,936.00
2024-01-28T08:45:29.562Z,944.00
2024-01-28T08:46:29.508Z,948.00
2024-01-28T08:47:31.446Z,968.00
2024-01-28T08:48:29.571Z,976.00
2024-01-28T08:49:29.522Z,980.00
2024-01-28T08:50:29.491Z,984.00
2024-01-28T08:51:29.494Z,996.00
2024-01-28T08:52:29.472Z,1008.00
2024-01-28T08:53:29.422Z,1008.00
2024-01-28T08:54:29.477Z,1012.00
2024-01-28T08:55:29.551Z,1012.00
2024-01-28T08:56:29.392Z,1016.00
2024-01-28T08:57:29.405Z,1020.00
2024-01-28T08:58:29.382Z,1020.00
2024-01-28T08:59:29.373Z,1020.00
2024-01-28T09:00:29.392Z,1004.00
2024-01-28T09:01:29.359Z,996.00
2024-01-28T09:02:29.325Z,1004.00
2024-01-28T09:03:29.439Z,988.00
2024-01-28T09:04:29.399Z,996.00
2024-01-28T09:05:29.315Z,1012.00
2024-01-28T09:06:29.360Z,1008.00
2024-01-28T09:07:29.273Z,1012.00
2024-01-28T09:08:29.272Z,1012.00
2024-01-28T09:09:29.274Z,1020.00
2024-01-28T09:10:29.245Z,980.00
2024-01-28T09:11:29.290Z,1020.00
2024-01-28T09:12:29.275Z,1028.00
2024-01-28T09:13:29.229Z,1028.00
2024-01-28T09:14:29.194Z,1036.00
2024-01-28T09:15:29.293Z,1008.00
2024-01-28T09:16:29.184Z,1024.00
2024-01-28T09:17:29.174Z,1028.00
2024-01-28T09:18:29.230Z,1012.00
2024-01-28T09:19:29.252Z,1012.00
2024-01-28T09:20:29.138Z,1008.00
2024-01-28T09:21:29.166Z,1012.00
2024-01-28T09:22:29.145Z,1020.00
2024-01-28T09:23:29.129Z,1020.00
2024-01-28T09:24:29.118Z,1012.00
2024-01-28T09:25:29.108Z,1004.00
2024-01-28T09:26:29.069Z,976.00
2024-01-28T09:27:29.082Z,1024.00
2024-01-28T09:28:29.069Z,992.00
2024-01-28T09:29:29.037Z,996.00
2024-01-28T09:30:29.186Z,968.00
2024-01-28T09:31:29.149Z,1016.00
2024-01-28T09:32:29.027Z,1028.00
2024-01-28T09:33:29.118Z,940.00
2024-01-28T09:34:29.112Z,996.00
2024-01-28T09:35:29.017Z,1016.00
2024-01-28T09:36:28.997Z,1040.00
2024-01-28T09:37:28.947Z,1036.00
2024-01-28T09:38:28.952Z,1044.00
2024-01-28T09:39:28.965Z,1048.00
2024-01-28T09:40:28.939Z,1052.00
2024-01-28T09:41:28.906Z,1052.00
2024-01-28T09:42:28.975Z,1056.00
2024-01-28T09:43:28.904Z,1056.00
2024-01-28T09:44:28.899Z,1060.00
2024-01-28T09:45:29.268Z,1060.00
2024-01-28T09:46:28.870Z,1064.00
2024-01-28T09:47:28.892Z,1060.00
2024-01-28T09:48:29.237Z,1060.00
2024-01-28T09:49:29.014Z,1060.00
2024-01-28T09:50:28.840Z,1064.00
2024-01-28T09:51:28.843Z,1060.00
2024-01-28T09:52:28.826Z,1064.00
2024-01-28T09:53:28.777Z,1068.00
2024-01-28T09:54:28.808Z,1068.00
2024-01-28T09:55:28.784Z,1064.00
2024-01-28T09:56:28.764Z,1068.00
2024-01-28T09:57:28.771Z,1060.00
2024-01-28T09:58:28.748Z,1056.00
2024-01-28T09:59:28.706Z,1056.00
2024-01-28T10:00:28.829Z,1056.00
2024-01-28T10:01:28.767Z,1052.00
2024-01-28T10:02:28.706Z,1060.00
2024-01-28T10:03:28.766Z,1064.00
2024-01-28T10:04:28.882Z,1072.00
2024-01-28T10:05:28.648Z,1072.00
2024-01-28T10:06:28.688Z,1076.00
2024-01-28T10:07:28.852Z,1076.00
2024-01-28T10:08:28.639Z,1076.00
2024-01-28T10:09:28.627Z,1076.00
2024-01-28T10:10:28.589Z,1076.00
2024-01-28T10:11:28.575Z,1076.00
2024-01-28T10:12:28.621Z,1088.00
2024-01-28T10:13:28.577Z,1080.00
2024-01-28T10:14:28.538Z,1080.00
2024-01-28T10:15:28.772Z,1080.00
2024-01-28T10:16:28.505Z,1080.00
2024-01-28T10:17:28.536Z,1076.00
2024-01-28T10:18:28.799Z,1076.00
2024-01-28T10:19:28.578Z,1080.00
2024-01-28T10:20:28.468Z,1084.00
2024-01-28T10:21:28.469Z,1092.00
2024-01-28T10:22:28.461Z,1104.00
2024-01-28T10:23:28.448Z,1116.00
2024-01-28T10:24:28.573Z,1128.00
2024-01-28T10:25:28.442Z,1144.00
2024-01-28T10:26:28.403Z,1160.00
2024-01-28T10:27:28.442Z,1180.00
2024-01-28T10:28:28.397Z,1192.00
2024-01-28T10:29:28.400Z,1212.00
2024-01-28T10:30:28.450Z,1228.00
2024-01-28T10:31:28.379Z,1236.00
2024-01-28T10:32:28.500Z,1252.00
2024-01-28T10:33:28.449Z,1268.00
2024-01-28T10:34:28.447Z,1272.00
2024-01-28T10:35:28.359Z,1284.00
2024-01-28T10:36:28.347Z,1296.00
2024-01-28T10:37:28.303Z,1300.00
2024-01-28T10:38:28.276Z,1312.00
2024-01-28T10:39:28.348Z,1320.00
2024-01-28T10:40:28.321Z,1328.00
2024-01-28T10:41:28.244Z,1340.00
2024-01-28T10:42:28.262Z,1348.00
2024-01-28T10:43:28.235Z,1352.00
2024-01-28T10:44:28.223Z,1360.00
2024-01-28T10:45:28.249Z,1348.00
2024-01-28T10:46:28.190Z,1316.00
2024-01-28T10:47:28.189Z,1396.00
2024-01-28T10:48:28.273Z,1400.00
2024-01-28T10:49:28.275Z,1396.00
2024-01-28T10:50:28.142Z,1404.00
2024-01-28T10:51:28.219Z,1416.00
2024-01-28T10:52:28.122Z,1416.00
2024-01-28T10:53:28.148Z,1456.00
2024-01-28T10:54:28.136Z,1512.00
2024-01-28T10:55:28.098Z,1564.00
2024-01-28T10:56:28.109Z,1612.00
2024-01-28T10:57:28.100Z,1648.00
2024-01-28T10:58:28.068Z,1692.00
2024-01-28T10:59:28.053Z,1748.00
2024-01-28T11:00:28.036Z,1832.00
2024-01-28T11:01:28.071Z,1896.00
2024-01-28T11:02:29.991Z,1940.00
2024-01-28T11:03:28.088Z,1984.00
2024-01-28T11:04:28.093Z,2152.00
2024-01-28T11:05:28.035Z,2616.00
2024-01-28T11:06:28.004Z,2944.00
2024-01-28T11:07:27.960Z,2988.00
2024-01-28T11:08:27.965Z,3008.00
2024-01-28T11:09:27.978Z,3048.00
2024-01-28T11:10:27.951Z,3100.00
2024-01-28T11:11:27.937Z,3160.00
2024-01-28T11:12:27.929Z,3236.00
2024-01-28T11:13:27.905Z,3316.00
2024-01-28T11:14:27.892Z,3436.00
2024-01-28T11:15:27.885Z,3536.00
2024-01-28T11:16:27.907Z,3592.00
2024-01-28T11:17:27.866Z,3708.00
2024-01-28T11:18:27.993Z,3900.00
2024-01-28T11:19:28.148Z,4064.00
2024-01-28T11:20:29.323Z,4044.00
2024-01-28T11:21:27.827Z,3840.00
2024-01-28T11:22:27.846Z,3664.00
2024-01-28T11:23:27.785Z,3684.00
2024-01-28T11:24:27.826Z,3856.00
2024-01-28T11:25:27.791Z,4044.00
2024-01-28T11:26:27.752Z,4264.00
2024-01-28T11:27:27.790Z,4500.00
2024-01-28T11:28:27.766Z,4764.00
2024-01-28T11:29:27.719Z,5112.00
2024-01-28T11:30:27.781Z,5688.00
2024-01-28T11:31:27.705Z,6356.00
2024-01-28T11:32:27.690Z,6652.00
2024-01-28T11:33:27.824Z,6548.00
2024-01-28T11:34:27.796Z,6448.00
2024-01-28T11:35:27.761Z,6540.00
2024-01-28T11:36:27.688Z,6696.00
2024-01-28T11:37:27.631Z,6916.00
2024-01-28T11:38:27.653Z,7160.00
2024-01-28T11:39:27.645Z,7376.00
2024-01-28T11:40:27.606Z,7624.00
2024-01-28T11:41:27.618Z,7836.00
2024-01-28T11:42:27.643Z,8060.00
2024-01-28T11:43:27.569Z,8304.00
2024-01-28T11:44:27.590Z,8528.00
2024-01-28T11:45:27.594Z,8736.00
2024-01-28T11:46:27.557Z,8956.00
2024-01-28T11:47:27.542Z,9144.00
2024-01-28T11:48:27.896Z,9364.00
2024-01-28T11:49:27.565Z,9636.00
2024-01-28T11:50:27.493Z,9824.00
2024-01-28T11:51:27.558Z,9980.00
2024-01-28T11:52:27.470Z,10140.00
2024-01-28T11:53:27.453Z,10328.00
2024-01-28T11:54:27.464Z,10524.00
2024-01-28T11:55:27.431Z,10684.00
2024-01-28T11:56:27.444Z,10824.00
2024-01-28T11:57:27.454Z,11000.00
2024-01-28T11:58:27.415Z,11140.00
2024-01-28T11:59:27.389Z,11296.00
2024-01-28T12:00:27.419Z,11516.00
2024-01-28T12:01:27.538Z,11632.00
2024-01-28T12:02:27.362Z,11832.00
2024-01-28T12:03:27.413Z,11996.00
2024-01-28T12:04:27.360Z,12188.00
2024-01-28T12:05:27.324Z,12360.00
2024-01-28T12:06:27.425Z,12500.00
2024-01-28T12:07:27.430Z,12752.00
2024-01-28T12:08:27.317Z,12976.00
2024-01-28T12:09:27.319Z,13140.00
2024-01-28T12:10:27.275Z,13352.00
2024-01-28T12:11:27.257Z,13504.00
2024-01-28T12:12:27.296Z,13824.00
2024-01-28T12:13:27.242Z,13952.00
2024-01-28T12:14:27.234Z,13984.00
2024-01-28T12:15:27.321Z,13920.00
2024-01-28T12:16:27.229Z,13856.00
2024-01-28T12:17:27.280Z,13856.00
2024-01-28T12:18:27.290Z,13712.00
2024-01-28T12:19:27.241Z,13520.00
2024-01-28T12:20:27.173Z,13372.00
2024-01-28T12:21:27.188Z,13176.00
2024-01-28T12:22:27.144Z,13096.00
2024-01-28T12:23:27.142Z,13180.00
2024-01-28T12:24:27.176Z,13280.00
2024-01-28T12:25:27.101Z,13284.00
2024-01-28T12:26:27.096Z,13256.00
2024-01-28T12:27:27.129Z,13276.00
2024-01-28T12:28:27.109Z,13312.00
2024-01-28T12:29:27.073Z,13336.00
2024-01-28T12:30:27.134Z,13336.00
2024-01-28T12:31:27.114Z,13364.00
2024-01-28T12:32:27.062Z,13340.00
2024-01-28T12:33:27.117Z,13128.00
2024-01-28T12:34:27.123Z,12940.00
2024-01-28T12:35:26.988Z,12820.00
2024-01-28T12:36:27.066Z,12812.00
2024-01-28T12:37:27.260Z,12736.00
2024-01-28T12:38:27.093Z,12476.00
2024-01-28T12:39:26.984Z,12100.00
2024-01-28T12:40:26.964Z,11996.00
2024-01-28T12:41:26.956Z,12116.00
2024-01-28T12:42:26.963Z,12224.00
2024-01-28T12:43:26.915Z,12200.00
2024-01-28T12:44:26.895Z,12144.00
2024-01-28T12:45:26.932Z,12164.00